Terminal Aerodrome Forecast
Issued by NWS Twin Cities, MN

Home | Current Version | Previous Version | Text Only | Print | Product List | Glossary On
Versions: 1 2 3 4 5 6 7 8 9 10 11 12 13 14 15 16
000
FTUS43 KMPX 191720
TAFSTC
TAF
KSTC 191720Z 1918/2018 21008KT P6SM SCT110 SCT250
     FM200100 20003KT P6SM FEW250
     FM201500 18008KT P6SM SCT150=

USA.gov is the U.S. government's official web portal to all federal, state and local government web resources and services.